Decoded Metar for YSSY (SYDNEY in AUSTRALIA) (IATA:SYD) | Meteo·Mobile Aviation Weather
aviador You're here:

YSSY Decoded Metar

SYDNEY in AUSTRALIA
Report Time2019-07-16 23:00:00
UTC Time2019-07-16 23:25:44
Flight Rules vfr VFR
Wind300° at 08 kt
W.Decomp.*RWY 25: 6.3 kt HW 4.9 kt RCW
RWY 34: 4.9 kt HW 6.3 kt LCW
Visibility9999 m
Phenomena:N/A
Clouds:N/A
Expected CloudBase > 3,600 ft AGL from Temp-Dew spread
CeilingNone
Temp14°C (ISA -1)
Dew Point05°C (55% RH)
AAT10.0°C
QNH1018 hPa
Density Alt-154 ft
Elevation10 ft
Report Wrong Elevation
Raw Report
METAR YSSY 162300Z 30008KT CAVOK 14/05 Q1018
NOSIG=####018000066####
SAMZ40 FQMA 162300

Extra information for YSSY:More info

Metar Taf Metar & Taf Last 4 Metars F.Rules Stats Wind Profile Meteogram Temp Stats Airport Information Weather charts Add Link Nearby VenuesMetar ALERT Operation Metar Decoded Social comments